createdAt,value
2022-10-19T00:01:23.307Z,12.33
2022-10-19T00:03:54.257Z,28.53
2022-10-19T00:06:33.035Z,17.60
2022-10-19T00:09:09.375Z,17.53
2022-10-19T00:11:40.454Z,20.40
2022-10-19T00:14:09.107Z,23.87
2022-10-19T00:16:38.180Z,19.43
2022-10-19T00:19:09.438Z,18.77
2022-10-19T00:21:36.622Z,19.33
2022-10-19T00:24:03.848Z,24.03
2022-10-19T00:26:30.780Z,17.57
2022-10-19T00:28:58.040Z,12.00
2022-10-19T00:31:25.904Z,23.33
2022-10-19T00:33:53.562Z,19.33
2022-10-19T00:36:29.219Z,17.77
2022-10-19T00:38:56.796Z,17.13
2022-10-19T00:41:26.616Z,15.30
2022-10-19T00:44:25.187Z,18.00
2022-10-19T00:46:53.453Z,21.10
2022-10-19T00:49:23.578Z,19.43
2022-10-19T00:52:14.916Z,25.17
2022-10-19T00:54:44.068Z,19.33
2022-10-19T00:57:11.561Z,16.00
2022-10-19T00:59:39.891Z,45.17
2022-10-19T01:02:07.276Z,19.50
2022-10-19T01:04:38.426Z,30.90
2022-10-19T01:07:08.054Z,22.93
2022-10-19T01:09:35.072Z,24.50
2022-10-19T01:12:23.230Z,17.30
2022-10-19T01:15:13.308Z,15.90
2022-10-19T01:17:48.971Z,14.00
2022-10-19T01:21:14.546Z,13.33
2022-10-19T01:24:00.034Z,18.67
2022-10-19T01:27:00.656Z,19.00
2022-10-19T01:30:28.828Z,15.53
2022-10-19T01:33:21.010Z,18.23
2022-10-19T01:36:27.806Z,14.33
2022-10-19T01:39:12.479Z,16.70
2022-10-19T01:41:56.900Z,19.93
2022-10-19T01:44:47.729Z,23.73
2022-10-19T01:47:25.656Z,17.27
2022-10-19T01:49:59.709Z,25.53
2022-10-19T01:52:27.883Z,17.37
2022-10-19T01:54:59.625Z,20.80
2022-10-19T01:57:34.069Z,19.20
2022-10-19T02:00:07.486Z,16.50
2022-10-19T02:02:37.399Z,21.43
2022-10-19T02:05:06.202Z,21.83
2022-10-19T02:07:33.780Z,13.97
2022-10-19T02:10:01.058Z,23.63
2022-10-19T02:12:31.836Z,24.30
2022-10-19T02:15:02.216Z,13.17
2022-10-19T02:17:33.450Z,18.33
2022-10-19T02:20:01.561Z,21.53
2022-10-19T02:22:28.711Z,21.00
2022-10-19T02:24:55.744Z,22.97
2022-10-19T02:27:22.888Z,22.53
2022-10-19T02:29:50.183Z,25.23
2022-10-19T02:32:17.221Z,24.80
2022-10-19T02:34:44.133Z,24.50
2022-10-19T02:37:11.392Z,25.57
2022-10-19T02:39:39.728Z,29.57
2022-10-19T02:42:20.375Z,23.37
2022-10-19T02:44:58.645Z,17.40
2022-10-19T02:47:43.729Z,16.23
2022-10-19T02:50:11.590Z,16.90
2022-10-19T02:52:39.830Z,15.60
2022-10-19T02:55:08.112Z,20.73
2022-10-19T02:57:35.479Z,20.10
2022-10-19T03:00:03.984Z,18.77
2022-10-19T03:02:30.838Z,17.50
2022-10-19T03:04:57.688Z,13.40
2022-10-19T03:07:25.294Z,12.73
2022-10-19T03:09:52.383Z,12.93
2022-10-19T03:12:19.455Z,17.53
2022-10-19T03:14:46.274Z,21.47
2022-10-19T03:17:13.290Z,17.33
2022-10-19T03:19:40.322Z,20.20
2022-10-19T03:22:07.584Z,23.20
2022-10-19T03:24:34.928Z,30.30
2022-10-19T03:27:01.763Z,28.90
2022-10-19T03:29:28.629Z,24.40
2022-10-19T03:31:55.663Z,25.83
2022-10-19T03:34:22.634Z,31.57
2022-10-19T03:36:49.547Z,22.97
2022-10-19T03:39:17.170Z,32.67
2022-10-19T03:41:44.344Z,26.17
2022-10-19T03:44:11.593Z,29.40
2022-10-19T03:46:39.287Z,19.97
2022-10-19T03:49:06.317Z,21.07
2022-10-19T03:51:34.180Z,20.63
2022-10-19T03:54:05.747Z,21.80
2022-10-19T03:56:33.941Z,29.20
2022-10-19T03:59:02.819Z,16.80
2022-10-19T04:01:41.453Z,24.43
2022-10-19T04:04:12.068Z,16.17
2022-10-19T04:06:42.793Z,28.17
2022-10-19T04:09:12.779Z,22.47
2022-10-19T04:11:40.102Z,20.07
2022-10-19T04:14:07.289Z,25.03
2022-10-19T04:16:34.597Z,19.13
2022-10-19T04:19:01.769Z,21.60
2022-10-19T04:21:36.482Z,25.77
2022-10-19T04:24:14.717Z,20.30
2022-10-19T04:26:45.807Z,30.27
2022-10-19T04:29:13.263Z,22.30
2022-10-19T04:31:40.587Z,34.60
2022-10-19T04:34:08.115Z,35.80
2022-10-19T04:36:36.284Z,37.77
2022-10-19T04:39:04.680Z,34.93
2022-10-19T04:41:31.766Z,39.47
2022-10-19T04:44:00.693Z,128.83
2022-10-19T04:46:29.648Z,104.60
2022-10-19T04:48:58.632Z,115.00
2022-10-19T04:51:26.225Z,85.57
2022-10-19T04:53:56.916Z,61.03
2022-10-19T04:56:27.622Z,227.70
2022-10-19T04:58:57.282Z,65.83
2022-10-19T05:01:25.341Z,45.17
2022-10-19T05:06:24.699Z,114.67
2022-10-19T05:08:51.922Z,45.57
2022-10-19T05:11:19.687Z,119.30
2022-10-19T05:13:47.341Z,87.70
2022-10-19T05:16:20.216Z,91.83
2022-10-19T05:18:52.453Z,71.63
2022-10-19T05:21:21.048Z,52.47
2022-10-19T05:23:51.969Z,44.20
2022-10-19T05:26:20.465Z,37.90
2022-10-19T05:29:00.604Z,42.37
2022-10-19T05:31:29.883Z,45.77
2022-10-19T05:33:57.882Z,37.17
2022-10-19T05:36:32.429Z,74.40
2022-10-19T05:39:06.477Z,65.40
2022-10-19T05:41:33.402Z,68.70
2022-10-19T05:44:01.839Z,78.83
2022-10-19T05:46:30.291Z,80.03
2022-10-19T05:48:58.191Z,41.93
2022-10-19T05:51:26.651Z,35.57
2022-10-19T05:53:54.696Z,34.37
2022-10-19T05:56:26.937Z,34.53
2022-10-19T05:58:55.244Z,38.60
2022-10-19T06:01:22.208Z,35.13
2022-10-19T06:03:53.095Z,35.73
2022-10-19T06:06:20.580Z,38.60
2022-10-19T06:08:47.893Z,40.13
2022-10-19T06:11:29.744Z,44.50
2022-10-19T06:13:58.943Z,42.93
2022-10-19T06:16:27.410Z,47.20
2022-10-19T06:18:55.879Z,39.50
2022-10-19T06:21:26.034Z,30.40
2022-10-19T06:23:57.902Z,22.60
2022-10-19T06:26:26.251Z,25.37
2022-10-19T06:29:00.603Z,25.97
2022-10-19T06:31:29.132Z,48.03
2022-10-19T06:33:56.289Z,36.03
2022-10-19T06:36:27.472Z,35.87
2022-10-19T06:38:54.745Z,36.13
2022-10-19T06:41:21.670Z,39.87
2022-10-19T06:43:52.384Z,23.50
2022-10-19T06:46:20.764Z,28.07
2022-10-19T06:48:58.580Z,25.57
2022-10-19T06:51:27.331Z,35.93
2022-10-19T06:53:57.084Z,30.27
2022-10-19T06:56:25.443Z,30.70
2022-10-19T06:58:52.707Z,48.80
2022-10-19T07:01:19.707Z,30.87
2022-10-19T07:03:46.650Z,19.40
2022-10-19T07:06:14.091Z,36.07
2022-10-19T07:08:42.710Z,32.27
2022-10-19T07:11:13.359Z,42.00
2022-10-19T07:13:40.317Z,33.73
2022-10-19T07:16:15.916Z,27.43
2022-10-19T07:18:46.851Z,22.13
2022-10-19T07:21:15.978Z,44.57
2022-10-19T07:23:44.682Z,30.03
2022-10-19T07:26:14.956Z,21.37
2022-10-19T07:28:43.693Z,22.80
2022-10-19T07:31:13.454Z,29.13
2022-10-19T07:33:40.438Z,32.20
2022-10-19T07:36:09.700Z,27.30
2022-10-19T07:38:37.549Z,33.70
2022-10-19T07:41:07.984Z,30.13
2022-10-19T07:43:35.778Z,35.20
2022-10-19T07:46:05.110Z,32.50
2022-10-19T07:48:32.361Z,36.97
2022-10-19T07:51:05.063Z,50.37
2022-10-19T07:53:32.393Z,41.80
2022-10-19T07:56:10.780Z,22.70
2022-10-19T07:58:38.147Z,22.57
2022-10-19T08:01:07.874Z,22.77
2022-10-19T08:06:24.326Z,16.43
2022-10-19T08:08:54.241Z,19.83
2022-10-19T08:11:32.819Z,18.10
2022-10-19T08:14:00.128Z,22.33
2022-10-19T08:16:39.489Z,17.50
2022-10-19T08:19:14.806Z,20.20
2022-10-19T08:21:43.614Z,22.17
2022-10-19T08:24:12.217Z,23.60
2022-10-19T08:26:40.188Z,18.10
2022-10-19T08:29:15.679Z,14.07
2022-10-19T08:31:45.474Z,14.20
2022-10-19T08:34:13.961Z,24.10
2022-10-19T08:39:12.721Z,12.50
2022-10-19T08:42:05.820Z,18.03
2022-10-19T08:44:58.822Z,12.10
2022-10-19T08:47:59.268Z,14.50
2022-10-19T08:50:32.023Z,17.57
2022-10-19T08:53:06.350Z,13.93
2022-10-19T08:55:49.150Z,13.30
2022-10-19T08:58:57.105Z,12.00
2022-10-19T09:01:52.915Z,8.70
2022-10-19T09:04:36.761Z,13.87
2022-10-19T09:07:29.521Z,18.80
2022-10-19T09:10:11.237Z,9.47
2022-10-19T09:13:01.454Z,7.80
2022-10-19T09:15:49.762Z,13.57
2022-10-19T09:18:25.651Z,6.00
2022-10-19T09:21:30.969Z,6.70
2022-10-19T09:24:07.316Z,9.10
2022-10-19T09:26:43.997Z,5.97
2022-10-19T09:29:22.033Z,8.40
2022-10-19T09:31:54.204Z,13.33
2022-10-19T09:34:38.874Z,6.93
2022-10-19T09:37:05.839Z,5.20
2022-10-19T09:39:32.919Z,5.10
2022-10-19T09:42:10.997Z,4.90
2022-10-19T09:44:38.878Z,7.67
2022-10-19T09:47:37.423Z,3.30
2022-10-19T09:50:25.072Z,5.27
2022-10-19T09:53:00.314Z,5.27
2022-10-19T09:55:45.714Z,8.43
2022-10-19T09:58:19.754Z,7.53
2022-10-19T10:00:54.629Z,4.13
2022-10-19T10:03:48.046Z,4.07
2022-10-19T10:06:17.870Z,3.83
2022-10-19T10:08:59.045Z,2.50
2022-10-19T10:11:30.499Z,2.53
2022-10-19T10:14:00.997Z,1.60
2022-10-19T10:16:30.580Z,4.60
2022-10-19T10:19:11.995Z,3.43
2022-10-19T10:21:55.947Z,5.50
2022-10-19T10:24:28.383Z,7.53
2022-10-19T10:26:58.060Z,4.57
2022-10-19T10:29:33.302Z,4.50
2022-10-19T10:32:00.115Z,6.00
2022-10-19T10:34:52.791Z,8.90
2022-10-19T10:37:37.293Z,6.40
2022-10-19T10:40:05.529Z,3.37
2022-10-19T10:42:51.288Z,3.20
2022-10-19T10:45:42.789Z,6.20
2022-10-19T10:48:44.413Z,4.17
2022-10-19T10:51:41.082Z,1.63
2022-10-19T10:54:27.590Z,2.60
2022-10-19T10:57:14.187Z,2.97
2022-10-19T11:00:08.289Z,2.70
2022-10-19T11:02:46.560Z,7.80
2022-10-19T11:05:44.945Z,5.20
2022-10-19T11:08:57.841Z,4.80
2022-10-19T11:11:33.801Z,5.87
2022-10-19T11:14:25.285Z,5.37
2022-10-19T11:16:54.414Z,3.27
2022-10-19T11:19:39.789Z,5.30
2022-10-19T11:22:23.639Z,6.93
2022-10-19T11:25:30.953Z,4.37
2022-10-19T11:28:26.581Z,4.50
2022-10-19T11:31:24.378Z,5.30
2022-10-19T11:34:23.671Z,6.90
2022-10-19T11:37:49.603Z,2.67
2022-10-19T11:40:30.490Z,4.40
2022-10-19T11:43:10.722Z,3.50
2022-10-19T11:46:05.129Z,5.37
2022-10-19T11:49:16.616Z,2.20
2022-10-19T11:52:07.584Z,4.93
2022-10-19T11:55:15.436Z,1.53
2022-10-19T11:57:56.723Z,3.53
2022-10-19T12:00:39.936Z,1.83
2022-10-19T12:03:25.623Z,5.80
2022-10-19T12:06:41.675Z,2.00
2022-10-19T12:09:47.652Z,3.67
2022-10-19T12:12:31.232Z,2.23
2022-10-19T12:15:13.159Z,2.60
2022-10-19T12:17:44.924Z,3.23
2022-10-19T12:20:39.982Z,2.20
2022-10-19T12:23:22.051Z,3.10
2022-10-19T12:25:50.653Z,2.00
2022-10-19T12:28:24.587Z,5.23
2022-10-19T12:30:52.546Z,1.80
2022-10-19T12:33:46.572Z,1.50
2022-10-19T12:36:45.390Z,1.20
2022-10-19T12:39:42.770Z,4.33
2022-10-19T12:42:51.834Z,2.50
2022-10-19T12:46:15.308Z,1.87
2022-10-19T12:48:42.236Z,5.10
2022-10-19T12:51:12.280Z,3.37
2022-10-19T12:53:49.295Z,5.90
2022-10-19T12:56:22.938Z,5.03
2022-10-19T12:59:01.659Z,3.83
2022-10-19T13:01:56.629Z,1.10
2022-10-19T13:04:33.069Z,1.30
2022-10-19T13:07:03.974Z,1.83
2022-10-19T13:09:37.735Z,5.87
2022-10-19T13:12:44.237Z,3.43
2022-10-19T13:15:55.679Z,1.30
2022-10-19T13:19:20.573Z,2.03
2022-10-19T13:22:28.886Z,4.30
2022-10-19T13:25:21.996Z,0.90
2022-10-19T13:27:51.443Z,3.83
2022-10-19T13:31:03.257Z,3.23
2022-10-19T13:33:44.940Z,3.73
2022-10-19T13:36:12.803Z,2.80
2022-10-19T13:38:48.418Z,1.33
2022-10-19T13:41:27.256Z,1.77
2022-10-19T13:44:29.409Z,1.47
2022-10-19T13:47:43.509Z,1.20
2022-10-19T13:50:50.166Z,4.03
2022-10-19T13:54:00.679Z,3.30
2022-10-19T13:56:56.527Z,6.70
2022-10-19T13:59:49.175Z,2.20
2022-10-19T14:02:51.296Z,4.00
2022-10-19T14:06:06.507Z,1.47
2022-10-19T14:11:48.134Z,5.07
2022-10-19T14:14:25.662Z,5.90
2022-10-19T14:16:59.809Z,2.70
2022-10-19T14:19:42.409Z,2.63
2022-10-19T14:25:28.263Z,1.00
2022-10-19T14:33:41.797Z,1.50
2022-10-19T14:36:17.935Z,2.03
2022-10-19T14:38:45.304Z,2.50
2022-10-19T14:41:37.246Z,2.20
2022-10-19T14:44:32.773Z,3.53
2022-10-19T14:47:02.073Z,3.73
2022-10-19T14:49:28.997Z,1.47
2022-10-19T14:52:01.533Z,2.30
2022-10-19T14:54:42.937Z,5.40
2022-10-19T14:57:19.039Z,11.00
2022-10-19T14:59:50.109Z,5.63
2022-10-19T15:02:27.156Z,3.63
2022-10-19T15:04:56.840Z,5.70
2022-10-19T15:07:38.743Z,10.43
2022-10-19T15:10:09.079Z,1.77
2022-10-19T15:12:40.395Z,2.03
2022-10-19T15:15:16.589Z,2.27
2022-10-19T15:18:30.150Z,2.53
2022-10-19T15:21:12.262Z,2.10
2022-10-19T15:23:48.129Z,4.10
2022-10-19T15:26:44.477Z,8.30
2022-10-19T15:29:21.701Z,4.97
2022-10-19T15:31:48.866Z,2.03
2022-10-19T15:34:28.995Z,4.37
2022-10-19T15:37:01.608Z,3.63
2022-10-19T15:39:39.746Z,5.23
2022-10-19T15:42:44.379Z,2.33
2022-10-19T15:45:47.523Z,3.80
2022-10-19T15:48:51.217Z,6.60
2022-10-19T15:51:35.158Z,12.67
2022-10-19T15:54:07.403Z,2.97
2022-10-19T15:56:37.388Z,5.47
2022-10-19T15:59:10.183Z,2.83
2022-10-19T16:01:37.363Z,1.63
2022-10-19T16:04:04.487Z,2.60
2022-10-19T16:06:33.795Z,6.00
2022-10-19T16:09:01.229Z,1.70
2022-10-19T16:11:29.992Z,8.93
2022-10-19T16:13:56.930Z,8.43
2022-10-19T16:16:27.402Z,2.40
2022-10-19T16:18:55.328Z,6.30
2022-10-19T16:21:27.061Z,2.90
2022-10-19T16:23:54.141Z,4.30
2022-10-19T16:26:22.330Z,2.90
2022-10-19T16:28:49.347Z,25.23
2022-10-19T16:31:17.485Z,6.20
2022-10-19T16:33:45.021Z,6.10
2022-10-19T16:36:13.126Z,11.13
2022-10-19T16:38:40.160Z,6.47
2022-10-19T16:41:10.504Z,5.27
2022-10-19T16:43:38.006Z,3.90
2022-10-19T16:46:05.729Z,2.60
2022-10-19T16:48:33.033Z,2.03
2022-10-19T16:51:36.297Z,2.50
2022-10-19T16:54:05.349Z,3.30
2022-10-19T16:56:33.435Z,2.00
2022-10-19T16:59:03.093Z,2.93
2022-10-19T17:01:31.483Z,4.30
2022-10-19T17:03:59.040Z,2.57
2022-10-19T17:06:28.164Z,2.77
2022-10-19T17:11:46.128Z,4.93
2022-10-19T17:14:13.306Z,8.07
2022-10-19T17:16:40.979Z,5.00
2022-10-19T17:19:09.121Z,4.03
2022-10-19T17:21:38.773Z,4.23
2022-10-19T17:24:08.022Z,2.20
2022-10-19T17:26:36.643Z,4.53
2022-10-19T17:29:05.766Z,5.20
2022-10-19T17:31:33.076Z,3.17
2022-10-19T17:34:03.224Z,1.80
2022-10-19T17:36:33.184Z,6.80
2022-10-19T17:39:04.180Z,3.00
2022-10-19T17:41:31.395Z,10.27
2022-10-19T17:43:58.751Z,5.23
2022-10-19T17:46:29.325Z,2.10
2022-10-19T17:48:57.848Z,2.93
2022-10-19T17:51:28.945Z,5.63
2022-10-19T17:53:58.616Z,5.27
2022-10-19T17:56:26.560Z,3.70
2022-10-19T17:58:54.044Z,3.00
2022-10-19T18:01:21.918Z,12.40
2022-10-19T18:03:50.501Z,5.27
2022-10-19T18:06:22.935Z,15.03
2022-10-19T18:08:53.451Z,5.80
2022-10-19T18:11:22.108Z,7.37
2022-10-19T18:13:50.775Z,2.60
2022-10-19T18:16:23.879Z,4.53
2022-10-19T18:18:56.173Z,3.00
2022-10-19T18:21:25.756Z,3.00
2022-10-19T18:23:53.865Z,3.97
2022-10-19T18:26:26.152Z,10.10
2022-10-19T18:28:54.804Z,3.73
2022-10-19T18:31:24.468Z,3.87
2022-10-19T18:33:58.190Z,4.40
2022-10-19T18:36:25.969Z,4.67
2022-10-19T18:38:55.198Z,3.13
2022-10-19T18:41:22.525Z,3.67
2022-10-19T18:43:57.320Z,5.07
2022-10-19T18:46:26.407Z,3.77
2022-10-19T18:48:53.915Z,4.60
2022-10-19T18:51:22.851Z,3.80
2022-10-19T18:53:50.546Z,4.93
2022-10-19T18:56:20.066Z,3.80
2022-10-19T18:58:47.892Z,3.93
2022-10-19T19:01:27.059Z,3.73
2022-10-19T19:03:56.444Z,3.80
2022-10-19T19:06:29.498Z,4.43
2022-10-19T19:08:57.822Z,5.20
2022-10-19T19:11:32.937Z,7.30
2022-10-19T19:14:06.873Z,7.47
2022-10-19T19:16:37.136Z,7.20
2022-10-19T19:19:05.159Z,5.63
2022-10-19T19:21:33.311Z,6.87
2022-10-19T19:24:02.769Z,5.33
2022-10-19T19:26:33.904Z,5.87
2022-10-19T19:29:01.130Z,4.90
2022-10-19T19:31:28.319Z,5.63
2022-10-19T19:33:55.527Z,5.83
2022-10-19T19:36:22.616Z,6.70
2022-10-19T19:38:51.975Z,11.07
2022-10-19T19:41:19.284Z,9.90
2022-10-19T19:43:47.143Z,7.17
2022-10-19T19:46:19.217Z,9.43
2022-10-19T19:48:48.303Z,10.33
2022-10-19T19:51:18.223Z,8.10
2022-10-19T19:53:46.301Z,7.40
2022-10-19T19:56:15.444Z,10.63
2022-10-19T19:58:43.685Z,9.13
2022-10-19T20:01:12.642Z,7.27
2022-10-19T20:03:40.956Z,10.73
2022-10-19T20:06:08.148Z,7.80
2022-10-19T20:08:36.994Z,10.50
2022-10-19T20:11:06.857Z,6.30
2022-10-19T20:13:34.324Z,7.43
2022-10-19T20:16:14.746Z,10.53
2022-10-19T20:18:45.067Z,8.27
2022-10-19T20:21:12.768Z,7.13
2022-10-19T20:23:40.339Z,8.67
2022-10-19T20:26:13.924Z,11.10
2022-10-19T20:28:40.855Z,14.53
2022-10-19T20:31:08.886Z,8.10
2022-10-19T20:33:37.734Z,9.27
2022-10-19T20:36:20.033Z,11.63
2022-10-19T20:38:49.305Z,12.10
2022-10-19T20:41:17.057Z,11.93
2022-10-19T20:43:44.371Z,8.47
2022-10-19T20:46:22.222Z,7.67
2022-10-19T20:48:50.254Z,7.50
2022-10-19T20:51:26.006Z,10.00
2022-10-19T20:53:57.793Z,10.40
2022-10-19T20:56:27.610Z,10.47
2022-10-19T20:58:56.632Z,12.33
2022-10-19T21:01:25.007Z,11.30
2022-10-19T21:03:55.379Z,12.60
2022-10-19T21:06:23.810Z,11.67
2022-10-19T21:08:51.070Z,11.70
2022-10-19T21:11:26.737Z,9.63
2022-10-19T21:13:56.064Z,11.60
2022-10-19T21:16:27.735Z,8.50
2022-10-19T21:18:55.151Z,8.53
2022-10-19T21:21:23.852Z,5.83
2022-10-19T21:23:55.514Z,6.90
2022-10-19T21:26:25.646Z,9.97
2022-10-19T21:28:53.393Z,6.43
2022-10-19T21:31:22.502Z,6.37
2022-10-19T21:33:51.439Z,8.00
2022-10-19T21:36:19.702Z,7.40
2022-10-19T21:38:48.386Z,6.73
2022-10-19T21:41:23.743Z,5.10
2022-10-19T21:43:53.540Z,7.83
2022-10-19T21:46:22.505Z,5.70
2022-10-19T21:48:49.953Z,8.77
2022-10-19T21:51:49.090Z,5.87
2022-10-19T21:54:18.927Z,12.83
2022-10-19T21:56:47.888Z,5.43
2022-10-19T21:59:15.198Z,6.90
2022-10-19T22:01:42.674Z,6.30
2022-10-19T22:04:15.904Z,8.53
2022-10-19T22:06:45.811Z,7.87
2022-10-19T22:09:17.106Z,14.47
2022-10-19T22:11:44.869Z,18.50
2022-10-19T22:14:13.960Z,19.67
2022-10-19T22:16:43.009Z,16.30
2022-10-19T22:19:12.395Z,12.30
2022-10-19T22:21:39.789Z,11.87
2022-10-19T22:24:12.947Z,18.93
2022-10-19T22:26:43.075Z,18.27
2022-10-19T22:29:10.498Z,22.17
2022-10-19T22:31:37.992Z,22.30
2022-10-19T22:34:07.389Z,19.60
2022-10-19T22:36:34.492Z,15.67
2022-10-19T22:39:01.581Z,13.23
2022-10-19T22:41:28.739Z,15.30
2022-10-19T22:43:55.804Z,9.33
2022-10-19T22:46:23.219Z,7.93
2022-10-19T22:48:50.226Z,9.30
2022-10-19T22:51:17.398Z,7.40
2022-10-19T22:53:44.289Z,8.60
2022-10-19T22:56:12.668Z,11.80
2022-10-19T22:58:40.009Z,10.37
2022-10-19T23:01:10.278Z,10.93
2022-10-19T23:03:39.460Z,9.67
2022-10-19T23:06:10.866Z,13.80
2022-10-19T23:08:38.262Z,8.20
2022-10-19T23:11:05.584Z,15.67
2022-10-19T23:13:32.631Z,9.97
2022-10-19T23:15:59.576Z,12.20
2022-10-19T23:18:26.751Z,14.87
2022-10-19T23:20:58.479Z,11.50
2022-10-19T23:23:26.433Z,12.03
2022-10-19T23:26:06.644Z,10.50
2022-10-19T23:28:35.818Z,19.27
2022-10-19T23:31:09.247Z,16.90
2022-10-19T23:33:36.615Z,12.63
2022-10-19T23:36:15.300Z,11.80
2022-10-19T23:38:46.648Z,9.83
2022-10-19T23:41:15.592Z,9.53
2022-10-19T23:43:42.707Z,13.10
2022-10-19T23:46:09.716Z,21.50
2022-10-19T23:48:36.862Z,14.23
2022-10-19T23:51:09.671Z,17.60
2022-10-19T23:53:41.186Z,7.40
2022-10-19T23:56:24.793Z,7.13
2022-10-19T23:58:52.298Z,8.20
